Time;durP1;ratioP1;P1;durP2;ratioP2;P2;SDS_P1;SDS_P2;PMS_P1;PMS_P2;Temp;Humidity;BMP_temperature;BMP_pressure;BME280_temperature;BME280_humidity;BME280_pressure;Samples;Min_cycle;Max_cycle;Signal;HPM_P1;HPM_P2
2022/09/12 00:00:05;;;;;;;7.35;3.78;;;;;;;15.33;100.00;100152.19;5110410;28;20088;-64
2022/09/12 00:02:31;;;;;;;7.05;3.45;;;;;;;15.33;100.00;100157.56;5110226;28;20023;-64
2022/09/12 00:04:56;;;;;;;5.80;3.22;;;;;;;15.30;100.00;100155.03;5108474;28;20050;-64
2022/09/12 00:07:22;;;;;;;6.18;3.20;;;;;;;15.28;100.00;100150.69;5108245;28;20023;-63
2022/09/12 00:09:47;;;;;;;4.95;3.05;;;;;;;15.20;100.00;100153.75;5108457;28;20031;-64
2022/09/12 00:12:13;;;;;;;6.25;3.50;;;;;;;15.10;100.00;100147.09;5108242;28;20184;-64
2022/09/12 00:14:38;;;;;;;5.28;3.35;;;;;;;15.10;100.00;100146.22;5108398;28;20499;-64
2022/09/12 00:17:03;;;;;;;4.90;2.63;;;;;;;15.06;100.00;100142.81;5108358;28;20040;-64
2022/09/12 00:19:29;;;;;;;7.50;3.40;;;;;;;15.01;100.00;100138.63;5109611;28;20027;-64
2022/09/12 00:21:55;;;;;;;8.35;3.80;;;;;;;14.94;100.00;100145.25;5109737;28;20031;-64
2022/09/12 00:24:21;;;;;;;6.18;3.47;;;;;;;14.93;100.00;100141.69;5110180;28;20024;-64
2022/09/12 00:26:46;;;;;;;5.38;3.10;;;;;;;14.83;100.00;100132.34;5110259;28;20035;-64
2022/09/12 00:29:17;;;;;;;5.40;3.35;;;;;;;14.85;100.00;100135.84;5110047;28;20024;-64
2022/09/12 00:31:42;;;;;;;6.95;3.63;;;;;;;14.82;100.00;100141.34;5109783;28;20031;-64
2022/09/12 00:34:08;;;;;;;5.38;2.88;;;;;;;14.82;100.00;100141.34;5107132;28;20030;-64
2022/09/12 00:36:33;;;;;;;5.85;3.40;;;;;;;14.73;100.00;100125.69;5089411;28;20051;-64
2022/09/12 00:38:59;;;;;;;8.55;3.50;;;;;;;14.77;100.00;100129.97;5089098;28;20032;-64
2022/09/12 00:41:28;;;;;;;6.05;3.00;;;;;;;14.73;100.00;100131.06;5103219;28;20031;-64
2022/09/12 00:43:57;;;;;;;7.68;3.60;;;;;;;14.69;100.00;100129.47;5109690;28;20043;-64
2022/09/12 00:46:35;;;;;;;8.13;3.45;;;;;;;14.70;100.00;100133.88;5109941;28;20080;-64
2022/09/12 00:49:23;;;;;;;7.68;3.60;;;;;;;14.69;100.00;100133.97;5109419;28;20057;-64
2022/09/12 00:52:03;;;;;;;6.47;3.28;;;;;;;14.66;100.00;100123.41;5109468;28;20096;-64
2022/09/12 00:54:36;;;;;;;6.38;3.22;;;;;;;14.62;100.00;100120.00;5109943;28;20557;-64
2022/09/12 00:57:05;;;;;;;8.15;3.60;;;;;;;14.60;100.00;100119.19;5109486;28;20038;-64
2022/09/12 00:59:48;;;;;;;5.93;3.40;;;;;;;14.61;100.00;100115.59;5109215;28;20031;-64
2022/09/12 01:02:14;;;;;;;7.07;3.55;;;;;;;14.52;100.00;100103.50;5108895;28;20104;-64
2022/09/12 01:04:40;;;;;;;6.45;3.70;;;;;;;14.61;100.00;100110.25;5095714;28;20158;-64
2022/09/12 01:07:07;;;;;;;8.20;3.25;;;;;;;14.56;100.00;100108.72;5088899;28;20503;-64
2022/09/12 01:09:33;;;;;;;6.53;3.25;;;;;;;14.52;100.00;100102.63;5090104;28;20046;-64
2022/09/12 01:12:01;;;;;;;8.07;3.90;;;;;;;14.51;100.00;100098.22;5109186;28;20463;-64
2022/09/12 01:14:27;;;;;;;5.88;3.55;;;;;;;14.49;100.00;100095.63;5109658;28;20031;-64
2022/09/12 01:16:52;;;;;;;5.70;3.25;;;;;;;14.44;100.00;100100.31;5109464;28;20060;-64
2022/09/12 01:20:13;;;;;;;6.28;3.10;;;;;;;14.42;100.00;100101.31;5109245;28;20561;-64
2022/09/12 01:23:17;;;;;;;5.68;3.22;;;;;;;14.37;100.00;100103.34;5105042;28;20048;-64
2022/09/12 01:26:01;;;;;;;;;;;;;;;14.30;100.00;100093.84;5095008;28;20062;-64
2022/09/12 01:28:52;;;;;;;3.80;2.33;;;;;;;14.20;100.00;100084.50;5108158;28;20393;-64
2022/09/12 01:31:22;;;;;;;4.72;2.50;;;;;;;14.22;100.00;100096.88;5108746;28;20127;-64
2022/09/12 01:34:06;;;;;;;6.10;3.03;;;;;;;14.18;100.00;100094.41;5108018;28;20375;-64
2022/09/12 01:36:37;;;;;;;5.97;3.20;;;;;;;14.13;100.00;100093.75;5107678;28;20023;-64
2022/09/12 01:39:10;;;;;;;6.60;3.20;;;;;;;14.13;100.00;100091.97;5107652;28;20015;-64
2022/09/12 01:41:48;;;;;;;;;;;;;;;14.15;100.00;100100.75;5108270;28;20105;-64
2022/09/12 01:44:49;;;;;;;9.13;3.35;;;;;;;14.14;100.00;100090.13;5109119;28;19955;-64
2022/09/12 01:47:33;;;;;;;5.40;3.00;;;;;;;14.09;100.00;100089.47;5109112;28;20487;-64
2022/09/12 01:50:31;;;;;;;4.97;2.80;;;;;;;14.12;100.00;100095.53;5109156;28;20019;-64
2022/09/12 01:53:07;;;;;;;6.32;3.45;;;;;;;14.10;100.00;100091.22;5112801;28;20032;-64
2022/09/12 01:55:48;;;;;;;5.82;3.70;;;;;;;14.09;100.00;100094.81;5112820;28;20034;-64
2022/09/12 01:58:21;;;;;;;6.07;3.65;;;;;;;14.11;100.00;100092.94;5110739;28;20474;-64
2022/09/12 02:00:58;;;;;;;6.57;3.33;;;;;;;14.13;100.00;100093.75;5110902;28;20020;-64
2022/09/12 02:03:29;;;;;;;6.38;3.80;;;;;;;14.09;100.00;100090.34;5110908;28;20498;-64
2022/09/12 02:06:21;;;;;;;5.10;3.03;;;;;;;14.08;100.00;100077.03;5111187;28;20020;-64
2022/09/12 02:08:52;;;;;;;6.32;3.78;;;;;;;14.08;100.00;100079.72;5101203;28;20038;-64
2022/09/12 02:11:18;;;;;;;6.55;3.80;;;;;;;14.00;100.00;100068.50;5111681;28;20032;-64
2022/09/12 02:14:03;;;;;;;5.15;3.00;;;;;;;14.10;100.00;100075.19;5112544;28;20036;-64
2022/09/12 02:16:37;;;;;;;5.60;3.60;;;;;;;14.08;100.00;100069.03;5112802;28;20081;-64
2022/09/12 02:19:10;;;;;;;5.50;3.80;;;;;;;14.07;100.00;100068.13;5112637;28;20049;-64
2022/09/12 02:21:39;;;;;;;5.30;3.33;;;;;;;14.09;100.00;100070.75;5112758;28;20032;-64
2022/09/12 02:24:08;;;;;;;7.40;3.75;;;;;;;14.11;100.00;100079.56;5111935;28;20469;-64
2022/09/12 02:26:43;;;;;;;6.18;3.65;;;;;;;14.09;100.00;100074.28;5112276;28;20034;-64
2022/09/12 02:29:09;;;;;;;7.82;3.67;;;;;;;14.04;100.00;100065.63;5112109;28;20019;-64
2022/09/12 02:31:54;;;;;;;6.15;3.22;;;;;;;14.01;100.00;100070.22;5107949;28;20466;-64
2022/09/12 02:34:30;;;;;;;6.10;3.83;;;;;;;13.99;100.00;100069.41;5091699;28;20031;-64
2022/09/12 02:37:27;;;;;;;6.10;3.08;;;;;;;13.92;100.00;100057.28;5091739;28;20027;-64
2022/09/12 02:39:54;;;;;;;5.30;3.55;;;;;;;13.94;100.00;100074.13;5093278;28;20024;-64
2022/09/12 02:42:21;;;;;;;8.70;3.70;;;;;;;13.93;100.00;100072.38;5112277;28;20035;-65
2022/09/12 02:44:47;;;;;;;9.70;3.30;;;;;;;13.88;100.00;100072.59;5111759;28;20023;-64
2022/09/12 02:47:21;;;;;;;8.88;3.63;;;;;;;13.80;100.00;100068.53;5111842;28;20431;-64
2022/09/12 02:49:47;;;;;;;5.05;3.08;;;;;;;13.81;100.00;100064.91;5111869;28;20023;-64
2022/09/12 02:52:13;;;;;;;6.10;3.38;;;;;;;13.82;100.00;100069.34;5111995;28;20034;-64
2022/09/12 02:54:39;;;;;;;6.32;3.42;;;;;;;13.78;100.00;100063.25;5111840;28;20467;-64
2022/09/12 02:57:17;;;;;;;5.95;3.53;;;;;;;13.73;100.00;100061.72;5112105;27;20023;-64
2022/09/12 02:59:43;;;;;;;6.20;3.22;;;;;;;13.71;100.00;100063.56;5108054;28;20379;-64
2022/09/12 03:02:52;;;;;;;6.03;3.03;;;;;;;13.69;100.00;100058.31;5110443;28;20026;-64
2022/09/12 03:05:18;;;;;;;6.78;3.10;;;;;;;13.68;100.00;100066.41;5071279;28;20031;-64
2022/09/12 03:08:03;;;;;;;6.97;3.35;;;;;;;13.71;100.00;100069.81;5109562;28;20250;-64
2022/09/12 03:10:34;;;;;;;6.25;3.15;;;;;;;13.69;100.00;100060.13;5109078;28;20019;-64
2022/09/12 03:13:17;;;;;;;7.43;3.72;;;;;;;13.67;100.00;100070.91;5090500;28;20076;-64
2022/09/12 03:15:52;;;;;;;5.70;3.05;;;;;;;13.63;100.00;100076.41;5109610;28;20028;-64
2022/09/12 03:18:39;;;;;;;5.80;3.60;;;;;;;13.60;100.00;100074.75;5109730;28;20039;-64
2022/09/12 03:21:25;;;;;;;7.05;3.40;;;;;;;13.56;100.00;100073.16;5110873;28;20034;-64
2022/09/12 03:24:01;;;;;;;6.32;3.70;;;;;;;13.55;100.00;100065.19;5109335;28;20100;-65
2022/09/12 03:26:51;;;;;;;7.45;3.63;;;;;;;13.55;100.00;100070.53;5109184;28;20043;-64
2022/09/12 03:29:18;;;;;;;10.27;3.85;;;;;;;13.56;100.00;100072.31;5109251;28;20019;-64
2022/09/12 03:31:51;;;;;;;7.18;3.67;;;;;;;13.53;100.00;100073.28;5107659;28;20035;-65
2022/09/12 03:34:18;;;;;;;10.45;4.03;;;;;;;13.54;100.00;100074.16;5107617;28;20063;-64
2022/09/12 03:36:44;;;;;;;9.57;4.38;;;;;;;13.53;100.00;100072.41;5107767;28;20494;-64
2022/09/12 03:39:09;;;;;;;7.20;3.70;;;;;;;13.48;100.00;100069.06;5109005;28;20031;-64
2022/09/12 03:41:35;;;;;;;8.15;3.70;;;;;;;13.43;100.00;100068.41;5108811;28;20038;-64
2022/09/12 03:44:01;;;;;;;8.10;4.05;;;;;;;13.43;100.00;100063.06;5109526;28;20032;-64
2022/09/12 03:46:26;;;;;;;10.13;4.10;;;;;;;13.39;100.00;100065.00;5110483;28;20039;-64
2022/09/12 03:48:52;;;;;;;7.10;4.07;;;;;;;13.36;100.00;100080.31;5110701;28;20015;-64
2022/09/12 03:51:17;;;;;;;8.13;3.35;;;;;;;13.37;100.00;100071.34;5110987;28;20034;-64
2022/09/12 03:53:42;;;;;;;7.85;4.57;;;;;;;13.34;100.00;100060.78;5110523;28;20386;-64
2022/09/12 03:56:10;;;;;;;9.75;3.95;;;;;;;13.33;100.00;100070.59;5110467;28;20031;-64
2022/09/12 03:58:36;;;;;;;10.20;4.03;;;;;;;13.31;100.00;100066.28;5110583;28;20063;-64
2022/09/12 04:01:12;;;;;;;5.90;3.55;;;;;;;13.32;100.00;100068.88;5110267;28;20559;-64
2022/09/12 04:03:39;;;;;;;12.40;4.28;;;;;;;13.23;100.00;100064.78;5110461;28;20055;-64
2022/09/12 04:06:05;;;;;;;7.63;4.35;;;;;;;13.27;100.00;100070.00;5110257;28;20023;-64
2022/09/12 04:08:30;;;;;;;5.47;3.38;;;;;;;13.25;100.00;100067.38;5110209;28;20031;-64
2022/09/12 04:11:05;;;;;;;6.93;3.63;;;;;;;13.21;100.00;100066.66;5110128;28;20378;-64
2022/09/12 04:13:31;;;;;;;7.15;3.83;;;;;;;13.20;100.00;100064.91;5109518;28;20387;-63
2022/09/12 04:16:00;;;;;;;7.65;3.40;;;;;;;13.20;100.00;100075.59;5110171;28;20101;-64
2022/09/12 04:18:25;;;;;;;6.30;3.45;;;;;;;13.17;100.00;100065.06;5110533;28;20031;-64
2022/09/12 04:20:51;;;;;;;5.88;3.00;;;;;;;13.16;100.00;100067.78;5109860;28;20034;-64
2022/09/12 04:23:16;;;;;;;7.25;4.45;;;;;;;13.15;100.00;100072.25;5109883;28;20048;-64
2022/09/12 04:25:42;;;;;;;8.63;4.20;;;;;;;13.18;100.00;100074.78;5107510;28;20023;-64
2022/09/12 04:28:07;;;;;;;9.38;4.00;;;;;;;13.14;100.00;100065.19;5096668;28;20027;-64
2022/09/12 04:30:33;;;;;;;10.80;4.90;;;;;;;13.23;100.00;100063.06;5109849;28;20028;-64
2022/09/12 04:32:58;;;;;;;11.50;5.45;;;;;;;13.24;100.00;100061.16;5109670;28;20067;-64
2022/09/12 04:35:24;;;;;;;9.10;4.68;;;;;;;13.26;100.00;100046.91;5109748;28;20455;-64
2022/09/12 04:37:50;;;;;;;9.05;5.32;;;;;;;13.24;100.00;100058.50;5109940;28;20035;-65
2022/09/12 04:40:15;;;;;;;11.45;4.82;;;;;;;13.21;100.00;100058.63;5108182;28;20091;-64
2022/09/12 04:42:41;;;;;;;9.38;5.22;;;;;;;13.23;100.00;100062.13;5108465;28;20047;-65
2022/09/12 04:45:06;;;;;;;9.23;4.93;;;;;;;13.26;100.00;100062.94;5089984;28;20035;-64
2022/09/12 04:47:32;;;;;;;9.45;4.63;;;;;;;13.27;100.00;100064.66;5108969;28;20020;-64
2022/09/12 04:49:57;;;;;;;13.30;4.43;;;;;;;13.27;100.00;100060.19;5108124;28;20791;-64
2022/09/12 04:52:23;;;;;;;8.40;4.22;;;;;;;13.23;100.00;100062.13;5108115;28;20083;-64
2022/09/12 04:54:48;;;;;;;7.15;4.07;;;;;;;13.18;100.00;100056.09;5094731;28;20138;-64
2022/09/12 04:57:14;;;;;;;11.07;5.65;;;;;;;13.21;100.00;100058.63;5098529;28;20031;-64
2022/09/12 04:59:39;;;;;;;8.95;4.65;;;;;;;13.24;100.00;100055.81;5109376;28;20023;-64
2022/09/12 05:02:04;;;;;;;12.15;5.90;;;;;;;13.32;100.00;100059.97;5109440;28;20031;-64
2022/09/12 05:04:30;;;;;;;9.48;4.13;;;;;;;13.39;100.00;100069.47;5109549;28;20325;-64
2022/09/12 05:06:56;;;;;;;12.57;5.22;;;;;;;13.37;100.00;100066.88;5109590;28;20103;-64
2022/09/12 05:09:21;;;;;;;8.75;4.88;;;;;;;13.33;100.00;100053.72;5108986;28;20062;-63
2022/09/12 05:11:47;;;;;;;10.50;5.28;;;;;;;13.41;100.00;100067.63;5107952;28;20024;-63
2022/09/12 05:14:12;;;;;;;11.70;5.90;;;;;;;13.47;100.00;100067.34;5109500;28;20034;-63
2022/09/12 05:16:39;;;;;;;10.07;4.65;;;;;;;13.47;100.00;100062.88;5109411;28;20019;-63
2022/09/12 05:19:05;;;;;;;8.00;4.68;;;;;;;13.60;100.00;100068.53;5108791;28;20810;-63
2022/09/12 05:21:30;;;;;;;11.73;4.88;;;;;;;13.62;100.00;100072.03;5109256;28;20031;-63
2022/09/12 05:23:58;;;;;;;8.52;4.95;;;;;;;13.64;100.00;100086.19;5109179;28;20115;-63
2022/09/12 05:26:24;;;;;;;9.52;5.25;;;;;;;13.66;100.00;100090.53;5111832;28;20047;-64
2022/09/12 05:28:51;;;;;;;9.75;5.10;;;;;;;13.65;100.00;100088.78;5111731;28;20027;-63
2022/09/12 05:31:21;;;;;;;10.85;5.88;;;;;;;13.71;100.00;100092.97;5111450;28;20461;-63
2022/09/12 05:33:48;;;;;;;13.38;5.68;;;;;;;13.75;100.00;100083.91;5111149;28;20106;-63
2022/09/12 05:36:19;;;;;;;15.45;7.03;;;;;;;13.83;100.00;100087.09;5111802;28;20483;-63
2022/09/12 05:38:45;;;;;;;14.98;6.22;;;;;;;13.90;100.00;100085.91;5111582;28;20046;-63
2022/09/12 05:41:14;;;;;;;12.65;6.50;;;;;;;13.99;100.00;100082.78;5112435;28;20031;-63
2022/09/12 05:43:41;;;;;;;15.75;6.70;;;;;;;13.80;100.00;100050.69;5113664;28;20069;-64
2022/09/12 05:46:11;;;;;;;12.73;5.97;;;;;;;14.10;100.00;100088.53;5112772;28;20038;-63
2022/09/12 05:48:38;;;;;;;14.85;6.55;;;;;;;14.21;100.00;100087.13;5110993;28;20399;-64
2022/09/12 05:51:07;;;;;;;15.30;6.07;;;;;;;14.30;100.00;100080.47;5113180;28;20027;-63
2022/09/12 05:53:34;;;;;;;14.70;5.63;;;;;;;14.40;100.00;100089.81;5113186;28;20034;-63
2022/09/12 05:56:10;;;;;;;16.10;7.25;;;;;;;14.52;100.00;100083.91;5094591;28;20483;-63
2022/09/12 05:58:37;;;;;;;17.55;6.95;;;;;;;14.68;100.00;100092.91;5092461;28;20024;-63
2022/09/12 06:01:12;;;;;;;11.98;5.15;;;;;;;14.77;100.00;100084.47;5092471;28;20028;-63
2022/09/12 06:03:48;;;;;;;11.35;5.93;;;;;;;14.85;100.00;100090.31;5092372;28;20020;-63
2022/09/12 06:06:15;;;;;;;15.00;6.10;;;;;;;14.91;100.00;100081.97;5092253;28;20084;-63
2022/09/12 06:08:43;;;;;;;14.57;7.85;;;;;;;15.10;100.00;100096.19;5074145;28;20020;-63
2022/09/12 06:11:11;;;;;;;14.30;6.32;;;;;;;15.22;100.00;100098.25;5103776;28;20065;-63
2022/09/12 06:13:41;;;;;;;13.65;6.72;;;;;;;15.35;100.00;100095.84;5112674;28;20063;-64
2022/09/12 06:16:09;;;;;;;24.83;7.18;;;;;;;15.39;100.00;100094.75;5112345;28;20039;-63
2022/09/12 06:18:36;;;;;;;20.20;7.80;;;;;;;15.48;100.00;100095.19;5112494;28;20027;-63
2022/09/12 06:21:09;;;;;;;31.27;8.40;;;;;;;15.63;100.00;100093.50;5112513;28;20446;-63
2022/09/12 06:23:36;;;;;;;13.27;6.45;;;;;;;15.71;100.00;100089.50;5099483;28;20071;-64
2022/09/12 06:26:03;;;;;;;12.05;6.10;;;;;;;15.83;100.00;100091.50;5091737;28;20035;-63
2022/09/12 06:28:29;;;;;;;18.10;6.82;;;;;;;15.92;100.00;100083.91;5091721;28;20032;-63
2022/09/12 06:31:04;;;;;;;22.58;6.72;;;;;;;16.06;100.00;100089.44;5109479;28;20620;-63
2022/09/12 06:33:33;;;;;;;11.60;5.82;;;;;;;16.16;100.00;100093.34;5112180;28;20035;-64
2022/09/12 06:36:09;;;;;;;10.18;4.82;;;;;;;16.27;100.00;100088.25;5111436;28;20037;-63
2022/09/12 06:38:35;;;;;;;11.98;5.72;;;;;;;16.30;100.00;100078.22;5112107;28;20039;-63
2022/09/12 06:41:06;;;;;;;13.50;5.43;;;;;;;16.48;100.00;100084.44;5111978;28;20856;-63
2022/09/12 06:43:32;;;;;;;10.73;5.78;;;;;;;16.66;100.00;100075.34;5111670;28;20027;-63
2022/09/12 06:45:58;;;;;;;8.48;4.93;;;;;;;16.60;100.00;100073.88;5111860;28;20502;-63
2022/09/12 06:48:23;;;;;;;12.20;5.70;;;;;;;16.75;100.00;100074.84;5112020;28;20027;-63
2022/09/12 06:51:08;;;;;;;9.80;5.80;;;;;;;16.86;100.00;100075.09;5111737;28;20481;-63
2022/09/12 06:53:35;;;;;;;8.60;5.28;;;;;;;16.93;100.00;100081.84;5111513;28;20027;-63
2022/09/12 06:56:09;;;;;;;9.73;5.82;;;;;;;17.11;100.00;100078.09;5109799;28;20105;-63
2022/09/12 06:58:34;;;;;;;9.52;6.07;;;;;;;17.30;100.00;100076.06;5111820;28;20036;-63
2022/09/12 07:01:15;;;;;;;10.35;5.88;;;;;;;17.54;100.00;100068.38;5111504;28;20148;-63
2022/09/12 07:03:42;;;;;;;10.27;5.15;;;;;;;17.75;100.00;100077.84;5111570;28;20098;-63
2022/09/12 07:06:10;;;;;;;10.60;6.10;;;;;;;17.95;100.00;100085.56;5111434;28;20027;-63
2022/09/12 07:08:36;;;;;;;9.27;6.38;;;;;;;18.03;100.00;100094.91;5110852;28;20051;-63
2022/09/12 07:11:20;;;;;;;12.90;5.28;;;;;;;17.97;100.00;100092.56;5110369;28;20029;-63
2022/09/12 07:13:48;;;;;;;9.50;5.57;;;;;;;17.81;99.80;100099.88;5110402;28;20073;-63
2022/09/12 07:16:14;;;;;;;11.15;5.32;;;;;;;17.74;99.69;100093.13;5110000;28;20023;-63
2022/09/12 07:18:40;;;;;;;11.55;6.38;;;;;;;17.75;100.00;100086.78;5092691;28;20364;-63
2022/09/12 07:21:09;;;;;;;11.77;5.47;;;;;;;17.74;99.96;100089.59;5089636;28;20028;-63
2022/09/12 07:23:34;;;;;;;10.05;6.10;;;;;;;17.64;100.00;100096.47;5090168;28;20063;-63
2022/09/12 07:26:00;;;;;;;11.25;6.70;;;;;;;17.42;100.00;100102.22;5090741;28;20387;-63
2022/09/12 07:28:29;;;;;;;11.25;6.57;;;;;;;17.37;100.00;100096.25;5090825;28;20080;-63
2022/09/12 07:30:55;;;;;;;14.80;6.82;;;;;;;17.38;100.00;100105.19;5090608;28;20036;-63
2022/09/12 07:33:27;;;;;;;12.93;6.88;;;;;;;17.49;100.00;100097.38;5090302;28;20020;-63
2022/09/12 07:35:53;;;;;;;10.45;5.72;;;;;;;17.78;100.00;100104.56;5091274;28;20360;-65
2022/09/12 07:38:19;;;;;;;12.32;7.15;;;;;;;17.95;100.00;100099.91;5091863;28;20555;-65
2022/09/12 07:40:45;;;;;;;11.05;6.40;;;;;;;18.04;100.00;100102.03;5099489;28;20134;-65
2022/09/12 07:43:10;;;;;;;12.35;7.40;;;;;;;18.13;100.00;100082.63;5111342;28;20019;-65
2022/09/12 07:45:36;;;;;;;12.15;7.40;;;;;;;18.26;100.00;100091.66;5109456;28;20422;-65
2022/09/12 07:48:02;;;;;;;12.00;7.10;;;;;;;18.27;100.00;100085.31;5109654;28;20020;-65
2022/09/12 07:50:27;;;;;;;14.48;7.88;;;;;;;18.54;99.28;100089.94;5109945;28;20393;-65
2022/09/12 07:52:53;;;;;;;13.10;7.75;;;;;;;18.94;99.24;100084.59;5108840;28;20027;-67
2022/09/12 07:55:20;;;;;;;12.13;7.55;;;;;;;19.27;96.64;100089.56;5108934;28;20423;-67
2022/09/12 07:57:48;;;;;;;16.30;8.15;;;;;;;19.39;95.04;100065.34;5108617;28;20529;-67
2022/09/12 08:00:14;;;;;;;13.02;7.78;;;;;;;19.69;93.04;100097.47;5109864;28;20390;-67
2022/09/12 08:02:40;;;;;;;12.20;7.00;;;;;;;19.71;91.98;100090.13;5110339;28;20526;-66
2022/09/12 08:05:05;;;;;;;14.07;6.90;;;;;;;19.56;89.71;100099.28;5110490;28;20122;-66
2022/09/12 08:07:32;;;;;;;12.25;7.35;;;;;;;19.54;91.29;100101.22;5110511;28;20024;-66
2022/09/12 08:09:57;;;;;;;16.05;7.72;;;;;;;19.70;92.05;100106.44;5110033;28;20032;-66
2022/09/12 08:12:23;;;;;;;13.18;6.85;;;;;;;19.77;91.01;100108.59;5110257;28;20080;-66
2022/09/12 08:14:48;;;;;;;15.57;7.60;;;;;;;20.00;90.13;100105.19;5110608;28;20504;-66
2022/09/12 08:17:13;;;;;;;11.40;6.72;;;;;;;20.30;88.14;100100.38;5082506;28;20456;-66
2022/09/12 08:19:39;;;;;;;12.95;7.10;;;;;;;20.64;86.78;100102.38;5089989;28;20047;-67
2022/09/12 08:22:04;;;;;;;11.65;7.10;;;;;;;21.01;85.03;100099.72;5089907;28;20058;-66
2022/09/12 08:24:30;;;;;;;11.38;7.07;;;;;;;21.47;82.94;100087.16;5089755;28;20368;-66
2022/09/12 08:26:56;;;;;;;11.52;6.20;;;;;;;22.19;80.51;100098.63;5089554;28;20032;-66
2022/09/12 08:29:21;;;;;;;12.32;7.00;;;;;;;22.72;75.59;100091.66;5089707;28;20444;-66
2022/09/12 08:31:47;;;;;;;9.73;6.47;;;;;;;23.25;72.18;100101.69;5089591;28;20107;-66
2022/09/12 08:34:12;;;;;;;12.30;6.13;;;;;;;23.43;69.80;100099.28;5089479;28;20437;-66
2022/09/12 08:36:38;;;;;;;10.02;6.03;;;;;;;23.63;69.02;100101.19;5089265;28;20059;-66
2022/09/12 08:39:05;;;;;;;12.10;6.22;;;;;;;23.75;68.12;100104.72;5090003;28;20126;-66
2022/09/12 08:41:38;;;;;;;14.73;6.00;;;;;;;24.14;66.13;100107.63;5089799;28;20023;-66
2022/09/12 08:44:34;;;;;;;8.32;5.32;;;;;;;24.66;65.62;100103.91;5108361;28;20031;-66
2022/09/12 08:47:31;;;;;;;8.93;5.15;;;;;;;24.81;64.63;100107.16;5108288;28;20095;-66
2022/09/12 08:50:08;;;;;;;9.60;5.93;;;;;;;25.13;61.94;100103.22;5107488;28;20031;-66
2022/09/12 08:52:58;;;;;;;8.63;5.45;;;;;;;25.51;63.19;100108.78;5104785;28;20032;-65
2022/09/12 08:55:25;;;;;;;9.70;5.93;;;;;;;25.80;60.15;100104.19;5087447;28;20035;-65
2022/09/12 08:57:51;;;;;;;9.00;5.50;;;;;;;25.98;60.23;100097.00;5101525;28;20025;-65
2022/09/12 09:00:18;;;;;;;8.27;5.38;;;;;;;26.46;60.15;100090.59;5107044;28;20016;-65
2022/09/12 09:02:57;;;;;;;10.45;4.85;;;;;;;26.67;56.65;100094.88;5107442;28;20031;-65
2022/09/12 09:05:50;;;;;;;8.25;5.05;;;;;;;26.86;57.42;100085.75;5108524;28;20030;-65
2022/09/12 09:08:25;;;;;;;8.73;4.53;;;;;;;26.17;56.31;100089.81;5108824;28;20115;-65
2022/09/12 09:11:04;;;;;;;6.78;4.20;;;;;;;26.36;57.45;100087.91;5108882;28;20027;-65
2022/09/12 09:16:37;;;;;;;5.85;4.32;;;;;;;26.61;55.62;100083.66;5108232;28;20111;-65
2022/09/12 09:19:12;;;;;;;6.90;3.92;;;;;;;26.43;57.47;100074.53;5107912;28;20055;-66
2022/09/12 09:22:04;;;;;;;7.43;3.85;;;;;;;26.90;57.29;100074.34;5104895;28;20441;-65
2022/09/12 09:24:38;;;;;;;8.18;4.18;;;;;;;27.03;56.37;100079.47;5097222;28;20047;-65
2022/09/12 09:27:11;;;;;;;7.25;4.28;;;;;;;27.11;55.01;100083.16;5108824;28;20478;-65
2022/09/12 09:29:45;;;;;;;5.32;3.22;;;;;;;27.31;55.73;100073.00;5109329;28;20028;-66
2022/09/12 09:32:18;;;;;;;5.63;3.90;;;;;;;27.09;55.03;100071.53;5090736;28;20119;-66
2022/09/12 09:34:44;;;;;;;6.05;3.92;;;;;;;26.68;55.04;100073.91;5108233;28;20110;-66
2022/09/12 09:37:19;;;;;;;5.82;3.80;;;;;;;26.74;57.50;100073.28;5107607;28;20031;-66
2022/09/12 09:39:53;;;;;;;6.95;4.03;;;;;;;27.04;56.31;100073.00;5106869;28;20444;-66
2022/09/12 09:42:33;;;;;;;6.63;3.78;;;;;;;27.25;55.13;100076.28;5087195;28;20020;-66
2022/09/12 09:45:10;;;;;;;5.90;3.58;;;;;;;27.53;54.47;100083.47;5087064;28;20113;-66
2022/09/12 09:47:35;;;;;;;7.93;3.97;;;;;;;27.53;54.10;100075.25;5087337;28;20024;-66
2022/09/12 09:50:01;;;;;;;6.30;4.00;;;;;;;27.70;54.30;100079.88;5087535;28;20387;-66
2022/09/12 09:52:29;;;;;;;8.35;3.60;;;;;;;27.77;54.72;100075.50;5088502;28;20111;-66
2022/09/12 09:55:00;;;;;;;5.75;3.67;;;;;;;28.24;53.20;100055.03;5087996;28;20646;-66
2022/09/12 09:57:35;;;;;;;6.57;4.00;;;;;;;28.66;54.46;100057.88;5098372;28;20036;-65
2022/09/12 10:00:26;;;;;;;7.28;3.80;;;;;;;28.99;50.86;100057.00;5107504;28;20045;-65
2022/09/12 10:02:57;;;;;;;5.95;3.85;;;;;;;29.49;49.03;100051.47;5107791;28;20027;-66
2022/09/12 10:05:23;;;;;;;6.13;3.80;;;;;;;29.82;49.87;100050.50;5107385;28;20028;-66
2022/09/12 10:07:49;;;;;;;8.02;3.67;;;;;;;30.07;48.67;100045.88;5107603;28;20084;-66
2022/09/12 10:10:18;;;;;;;5.90;3.42;;;;;;;30.19;46.93;100048.09;5107845;28;20035;-66
2022/09/12 10:12:44;;;;;;;5.00;3.08;;;;;;;30.15;45.59;100033.00;5111296;28;20153;-66
2022/09/12 10:15:16;;;;;;;6.45;3.58;;;;;;;29.98;46.13;100039.56;5098454;28;20445;-66
2022/09/12 10:17:45;;;;;;;6.32;3.13;;;;;;;30.09;45.91;100038.31;5090862;28;20059;-66
2022/09/12 10:20:34;;;;;;;5.45;3.17;;;;;;;30.43;46.44;100038.97;5090847;28;20134;-66
2022/09/12 10:23:20;;;;;;;6.32;3.53;;;;;;;30.29;45.66;100029.59;5090336;28;20048;-66
2022/09/12 10:25:52;;;;;;;7.53;3.50;;;;;;;30.59;46.37;100030.69;5090903;28;20036;-66
2022/09/12 10:28:30;;;;;;;7.40;3.22;;;;;;;31.06;45.38;100036.16;5090825;28;20027;-66
2022/09/12 10:30:56;;;;;;;6.53;3.10;;;;;;;30.90;44.15;100017.91;5091534;28;20024;-66
2022/09/12 10:33:24;;;;;;;5.70;2.97;;;;;;;30.86;43.80;100027.50;5091007;28;20020;-66
2022/09/12 10:35:52;;;;;;;4.63;2.88;;;;;;;30.33;44.24;100022.69;5090280;28;20099;-66
2022/09/12 10:38:27;;;;;;;5.72;2.92;;;;;;;29.74;46.96;100022.25;5094305;28;20436;-66
2022/09/12 10:41:00;;;;;;;4.25;2.47;;;;;;;30.48;48.33;100015.44;5099836;28;20030;-66
2022/09/12 10:43:29;;;;;;;6.20;2.15;;;;;;;31.04;43.50;100024.53;5110514;28;20023;-66
2022/09/12 10:46:20;;;;;;;5.22;2.60;;;;;;;31.22;43.01;100014.13;5092574;28;20089;-66
2022/09/12 10:48:50;;;;;;;4.00;2.40;;;;;;;31.73;43.53;100021.66;5101873;28;20055;-66
2022/09/12 10:51:24;;;;;;;5.15;2.38;;;;;;;31.78;41.37;100024.72;5091368;28;20089;-66
2022/09/12 10:53:56;;;;;;;3.67;2.08;;;;;;;31.99;41.47;100013.91;5090844;28;20590;-66
2022/09/12 10:56:34;;;;;;;3.95;2.60;;;;;;;32.07;42.54;100019.31;5092891;28;20044;-66
2022/09/12 10:59:10;;;;;;;4.78;2.30;;;;;;;32.06;41.94;100009.34;5111036;28;20031;-66
2022/09/12 11:01:58;;;;;;;3.47;1.67;;;;;;;32.16;41.36;100007.16;5110836;28;20046;-66
2022/09/12 11:04:45;;;;;;;4.20;1.90;;;;;;;32.46;39.54;100013.59;5111059;28;20407;-66
2022/09/12 11:07:17;;;;;;;4.65;2.03;;;;;;;32.64;39.30;100009.41;5110990;28;20100;-66
2022/09/12 11:10:01;;;;;;;4.25;1.90;;;;;;;32.69;37.40;99998.66;5111502;28;20622;-67
2022/09/12 11:12:26;;;;;;;3.15;1.75;;;;;;;32.92;38.87;99993.06;5091115;28;20305;-67
2022/09/12 11:15:13;;;;;;;5.65;2.20;;;;;;;33.24;37.76;99993.47;5091019;28;20077;-66
2022/09/12 11:17:54;;;;;;;8.30;2.60;;;;;;;32.46;35.84;99984.16;5090937;28;20047;-66
2022/09/12 11:20:35;;;;;;;3.72;2.22;;;;;;;32.51;38.81;99983.56;5090954;28;20028;-66
2022/09/12 11:23:34;;;;;;;2.60;1.58;;;;;;;32.76;39.56;99976.72;5090725;28;20043;-66
2022/09/12 11:26:05;;;;;;;2.88;1.70;;;;;;;32.92;38.37;99977.38;5104828;28;20028;-66
2022/09/12 11:28:33;;;;;;;4.82;2.00;;;;;;;32.69;39.37;99968.38;5110657;28;20302;-66
2022/09/12 11:31:24;;;;;;;5.65;2.00;;;;;;;32.97;39.10;99976.78;5110455;28;20032;-66
2022/09/12 11:33:51;;;;;;;3.40;2.00;;;;;;;33.34;37.71;99965.56;5110361;28;20043;-67
2022/09/12 11:36:50;;;;;;;3.95;1.48;;;;;;;33.01;35.60;99959.69;5110484;28;20595;-66
2022/09/12 11:39:26;;;;;;;2.88;1.10;;;;;;;32.43;35.50;99953.38;5110058;28;20034;-66
2022/09/12 11:41:59;;;;;;;9.63;2.08;;;;;;;32.16;37.91;99943.84;5109887;28;20031;-66